Versailles, Missouri
Current Conditions -  °F | °C
As of 3:53 PM on Saturday 20 Dec 2014 (Local Time) from KDMO Reporting Station
Overcast Overcast  
Wind Chill: 36°   Ceiling: 1700
Heat Index: 41°   Visibility: 10mi
Dew Point: 35°   Wind: 7mph
Humidity: 79%   Direction: 190°S
Pressure: 30.17"   Gusts: NA
Location:  38.43°N, 92.84°W
Report Text: KDMO 202153Z AUTO 19006KT 10SM OVC017 05/02 A3017 RMK AO2 SLP223 T00500017
Loading
Personal Weather Stations






























Interactive Weather Map New forecast layout! Learn more

10-Day Weather Forecast

Advertisements
Track Severe Weather on mobile